Latest Weather Observations for Smithton

IDT60801

Issued at 1:35 pm EDT Saturday 22 November 2014 (issued every 30 minutes, with the page automatically refreshed every 10 minutes)

About weather observations | Map of weather stations | Latest weather observations for TAS | Other Formats
Station Details ID: 091292 Name: SMITHTON AERODROME Lat: -40.83 Lon: 145.08 Height: 7.5 m
Data from the previous 72 hours. | See also: Recent months at Smithton
Date/Time
EDT
Temp
°C
App
Temp
°C
Dew
Point
Rel
Hum
%
Delta-T
°C
Wind Press
QNH
hPa
Press
MSL
hPa
Rain
since 9 am
mm
Dir
 
Spd
km/h
Gust
km/h
Spd
kts
Gust
kts
22/01:30pm 16.4 12.9 13.5 83 1.6 ENE 24 32 13 17 1008.4 - 0.2
22/01:00pm 16.5 12.8 13.8 84 1.5 ENE 26 35 14 19 1008.3 - 0.2
22/12:30pm 15.8 11.4 14.2 90 0.9 ENE 30 41 16 22 1008.6 - 0.2
22/12:00pm 14.8 11.0 13.5 92 0.7 ENE 26 35 14 19 1009.1 1009.1 0.2
22/11:30am 15.4 11.8 12.9 85 1.4 ENE 24 33 13 18 1008.9 - 0.2
22/11:00am 17.1 13.4 12.8 76 2.4 ENE 24 35 13 19 1008.8 - 0.0
22/10:30am 16.7 12.5 9.9 64 3.6 NE 22 28 12 15 1009.2 - 0.0
22/10:00am 16.9 13.7 12.0 73 2.7 NE 20 26 11 14 1009.3 - 0.0
22/09:30am 14.7 12.3 12.6 87 1.1 NNE 17 22 9 12 1010.2 - 0.0
22/09:00am 15.3 13.0 13.1 87 1.2 NE 17 20 9 11 1009.5 1009.5 0.4
22/08:30am 14.4 12.8 12.8 90 0.9 NNE 13 17 7 9 1010.0 - 0.4
22/08:00am 14.0 12.4 12.7 92 0.7 N 13 15 7 8 1010.0 - 0.4
22/07:30am 13.1 12.6 12.8 98 0.2 N 7 9 4 5 1010.1 - 0.4
22/07:00am 12.7 11.8 12.5 99 0.1 N 9 13 5 7 1010.2 - 0.2
22/06:30am 10.4 9.4 10.2 99 0.1 N 6 9 3 5 1010.5 - 0.2
22/06:00am 9.3 8.0 9.2 99 0.0 N 6 7 3 4 1010.8 1010.8 0.0
22/05:30am 9.0 8.7 8.7 98 0.1 CALM 0 0 0 0 1010.6 - 0.0
22/05:00am 9.2 8.1 8.3 94 0.4 N 4 7 2 4 1010.2 - 0.0
22/04:30am 12.8 10.3 12.2 96 0.3 N 17 20 9 11 1009.9 - 0.0
22/04:00am 12.1 9.5 11.9 99 0.1 N 17 24 9 13 1009.8 - 0.0
22/03:47am 10.9 9.4 10.7 99 0.1 NW 9 20 5 11 1009.2 - 0.0
22/03:30am 4.7 2.2 4.6 99 0.0 WSW 7 9 4 5 1009.3 - 0.0
22/03:00am 5.0 3.9 4.9 99 0.0 CALM 0 6 0 3 1009.5 1009.5 0.0
22/02:30am 4.5 2.5 4.4 99 0.0 W 4 11 2 6 1009.9 - 0.0
22/02:00am 4.9 3.7 4.8 99 0.0 CALM 0 0 0 0 1009.9 - 0.0
22/01:30am 4.8 3.6 4.7 99 0.0 CALM 0 0 0 0 1010.3 - 0.0
22/01:00am 5.1 3.9 4.8 98 0.1 CALM 0 0 0 0 1010.8 - 0.0
22/12:30am 5.5 4.4 5.2 98 0.1 CALM 0 0 0 0 1011.2 - 0.0
22/12:00am 5.4 4.3 5.0 97 0.2 W 0 0 0 0 1011.5 1011.5 0.0
 
Date/Time
EDT
Temp
°C
App
Temp
°C
Dew
Point
Rel
Hum
%
Delta-T
°C
Wind Press
QNH
hPa
Press
MSL
hPa
Rain
since 9 am
mm
Dir
 
Spd
km/h
Gust
km/h
Spd
kts
Gust
kts
21/11:30pm 6.2 3.9 5.6 96 0.3 W 7 9 4 5 1011.8 - 0.0
21/11:00pm 6.4 3.3 5.7 95 0.3 W 11 13 6 7 1012.0 - 0.0
21/10:30pm 7.6 6.9 6.9 95 0.3 CALM 0 0 0 0 1012.7 - 0.0
21/10:00pm 8.4 7.8 7.3 93 0.5 CALM 0 0 0 0 1012.7 - 0.0
21/09:30pm 9.1 8.4 7.1 87 0.9 CALM 0 0 0 0 1012.3 - 0.0
21/09:00pm 10.3 8.6 7.4 82 1.4 W 6 7 3 4 1011.9 1011.9 0.0
21/08:30pm 10.6 7.9 7.3 80 1.6 W 11 13 6 7 1011.9 - 0.0
21/08:00pm 12.4 8.6 7.5 72 2.4 W 17 20 9 11 1011.6 - 0.0
21/07:30pm 13.5 9.0 6.8 64 3.2 W 20 24 11 13 1011.3 - 0.0
21/07:00pm 14.2 9.3 6.8 61 3.6 W 22 28 12 15 1010.8 - 0.0
21/06:30pm 15.1 9.9 7.2 59 3.9 W 24 30 13 16 1010.5 - 0.0
21/06:00pm 15.6 10.3 6.6 55 4.4 W 24 30 13 16 1010.0 1010.0 0.0
21/05:30pm 15.9 10.6 6.6 54 4.5 WNW 24 32 13 17 1009.8 - 0.0
21/05:00pm 16.5 11.5 6.3 51 5.0 WSW 22 30 12 16 1009.6 - 0.0
21/04:30pm 16.6 10.5 6.4 51 5.0 W 28 37 15 20 1009.7 - 0.0
21/04:00pm 16.7 11.3 6.2 50 5.1 W 24 35 13 19 1009.6 - 0.0
21/03:30pm 16.5 10.8 6.6 52 4.9 SW 26 39 14 21 1009.5 - 0.0
21/03:00pm 16.8 11.1 6.9 52 4.9 WSW 26 37 14 20 1009.4 1009.4 0.0
21/02:30pm 17.1 11.1 8.8 58 4.3 WSW 30 41 16 22 1009.3 - 0.0
21/02:00pm 17.3 11.1 7.9 54 4.8 WSW 30 43 16 23 1009.2 - 0.0
21/01:30pm 16.5 9.7 7.7 56 4.4 WSW 33 46 18 25 1009.3 - 0.0
21/01:00pm 16.4 9.1 7.1 54 4.6 WSW 35 50 19 27 1009.0 - 0.0
21/12:30pm 15.4 8.2 5.9 53 4.6 WSW 33 46 18 25 1008.8 - 0.0
21/12:00pm 16.0 9.5 9.0 63 3.6 WSW 33 43 18 23 1008.7 1008.7 0.0
21/11:30am 14.6 8.1 8.1 65 3.2 WSW 32 43 17 23 1008.5 - 0.0
21/11:00am 15.1 8.4 8.3 64 3.4 SW 33 41 18 22 1008.3 - 0.0
21/10:30am 13.8 8.6 9.0 73 2.4 WSW 26 37 14 20 1008.3 - 0.0
21/10:00am 12.9 8.1 8.8 76 2.1 SW 24 32 13 17 1007.8 - 0.0
21/09:30am 11.6 7.2 8.8 83 1.4 SW 22 30 12 16 1007.9 - 0.0
21/09:00am 11.3 4.9 8.7 84 1.3 WSW 32 41 17 22 1007.9 1007.9 3.6
21/08:30am 11.5 7.2 10.6 94 0.5 WSW 24 32 13 17 1007.2 - 3.6
21/08:00am 11.2 6.4 10.3 94 0.5 WSW 26 35 14 19 1006.8 - 3.6
21/07:30am 11.5 7.2 10.7 95 0.4 WSW 24 33 13 18 1006.3 - 3.4
21/07:00am 12.1 7.9 11.2 94 0.5 WSW 24 33 13 18 1005.5 - 3.2
21/06:30am 12.2 8.4 11.1 93 0.6 WSW 22 32 12 17 1004.7 - 3.2
21/06:00am 12.3 8.1 11.2 93 0.6 WSW 24 32 13 17 1004.3 1004.3 3.2
21/05:30am 12.8 8.8 11.7 93 0.6 WSW 24 33 13 18 1003.7 - 3.2
21/05:00am 13.2 9.7 12.1 93 0.6 WSW 22 28 12 15 1003.5 - 3.2
21/04:30am 13.2 10.2 12.1 93 0.6 WSW 19 26 10 14 1002.8 - 3.2
21/04:00am 13.5 10.1 12.4 93 0.6 WSW 22 30 12 16 1002.6 - 3.2
21/03:30am 13.7 11.0 12.8 94 0.5 WSW 19 24 10 13 1002.6 - 3.2
21/03:00am 13.9 10.6 12.8 93 0.6 W 22 30 12 16 1002.4 1002.4 3.2
21/02:30am 14.0 12.6 13.4 96 0.3 W 13 17 7 9 1002.1 - 3.2
21/02:00am 14.2 12.8 13.4 95 0.4 WSW 13 17 7 9 1002.4 - 3.2
21/01:30am 14.4 13.1 13.8 96 0.3 WSW 13 17 7 9 1002.5 - 3.2
21/01:00am 14.4 13.2 13.9 97 0.3 W 13 20 7 11 1002.8 - 3.2
21/12:30am 14.5 13.3 13.9 96 0.3 W 13 20 7 11 1002.9 - 3.2
21/12:00am 14.6 13.4 14.0 96 0.3 WNW 13 17 7 9 1002.7 1002.7 3.2
 
Date/Time
EDT
Temp
°C
App
Temp
°C
Dew
Point
Rel
Hum
%
Delta-T
°C
Wind Press
QNH
hPa
Press
MSL
hPa
Rain
since 9 am
mm
Dir
 
Spd
km/h
Gust
km/h
Spd
kts
Gust
kts
20/11:30pm 14.8 14.4 14.2 96 0.3 WNW 9 13 5 7 1002.9 - 3.2
20/11:00pm 15.0 13.9 14.4 96 0.3 WNW 13 17 7 9 1003.0 - 3.2
20/10:30pm 15.1 13.3 14.5 96 0.3 W 17 22 9 12 1003.1 - 3.2
20/10:00pm 15.3 13.7 15.0 98 0.2 WNW 17 22 9 12 1003.4 - 3.2
20/09:30pm 15.3 14.1 15.1 99 0.1 NW 15 20 8 11 1003.3 - 3.2
20/09:00pm 15.6 14.1 15.4 99 0.1 NW 17 20 9 11 1003.0 1003.0 3.2
20/08:30pm 15.6 13.8 15.4 99 0.1 NW 19 26 10 14 1003.0 - 3.2
20/08:00pm 15.6 13.2 15.4 99 0.1 NW 22 32 12 17 1002.8 - 3.0
20/07:30pm 15.4 15.4 15.2 99 0.1 NNW 9 13 5 7 1002.8 - 1.6
20/07:00pm 15.6 14.8 15.1 97 0.3 NNW 13 17 7 9 1002.7 - 1.4
20/06:30pm 15.6 14.0 15.1 97 0.3 NW 17 24 9 13 1003.2 - 1.4
20/06:00pm 15.5 13.4 14.7 95 0.5 W 19 32 10 17 1003.6 1003.6 1.4
20/05:30pm 15.5 11.3 14.7 95 0.5 WSW 30 41 16 22 1003.3 - 1.2
20/05:24pm 15.5 10.9 14.7 95 0.5 SW 32 41 17 22 1003.2 - 1.2
20/05:00pm 15.1 10.4 14.3 95 0.5 N 32 43 17 23 1001.2 - 1.2
20/04:30pm 15.7 12.9 14.4 92 0.7 N 22 32 12 17 1002.2 - 1.0
20/04:00pm 15.6 13.2 14.5 93 0.6 NNE 20 33 11 18 1003.5 - 0.6
20/03:30pm 15.9 12.6 14.1 89 1.0 NE 24 35 13 19 1003.3 - 0.6
20/03:00pm 16.1 12.8 13.9 87 1.2 ENE 24 30 13 16 1003.7 1003.7 0.6
20/02:30pm 16.1 12.8 13.9 87 1.2 ENE 24 32 13 17 1003.8 - 0.6
20/02:00pm 16.2 13.3 13.9 86 1.3 ENE 22 32 12 17 1003.3 - 0.6
20/01:30pm 15.9 13.2 13.4 85 1.4 E 20 32 11 17 1003.8 - 0.6
20/01:00pm 15.7 11.7 14.2 91 0.9 E 28 39 15 21 1003.4 - 0.6
20/12:30pm 15.6 12.6 13.6 88 1.1 ENE 22 32 12 17 1003.6 - 0.4
20/12:00pm 15.1 12.1 13.6 91 0.8 ENE 22 28 12 15 1004.4 1004.4 0.2
20/11:30am 15.4 12.6 13.1 86 1.3 ENE 20 28 11 15 1004.4 - 0.0
20/11:00am 15.5 12.4 13.3 87 1.2 ENE 22 28 12 15 1004.4 - 0.0
20/10:30am 15.1 12.0 13.3 89 1.0 ENE 22 32 12 17 1004.7 - 0.0
20/10:00am 14.9 12.1 13.3 90 0.9 E 20 30 11 16 1005.8 - 0.0
20/09:30am 14.6 11.7 12.8 89 1.0 ENE 20 26 11 14 1006.9 - 0.0
20/09:00am 14.9 12.9 12.6 86 1.3 ENE 15 20 8 11 1007.6 1007.6 0.0
20/08:30am 15.0 13.2 12.1 83 1.6 NE 13 19 7 10 1006.7 - 0.0
20/08:00am 15.3 13.7 11.7 79 1.9 ENE 11 17 6 9 1006.7 - 0.0
20/07:30am 14.6 13.9 12.1 85 1.4 E 7 11 4 6 1006.6 - 0.0
20/07:00am 13.8 14.5 12.2 90 0.9 CALM 0 6 0 3 1006.8 - 0.0
20/06:30am 13.6 12.9 12.0 90 0.9 E 7 11 4 6 1006.8 - 0.0
20/06:00am 13.3 11.8 12.0 92 0.7 ESE 11 15 6 8 1006.8 1006.8 0.0
20/05:30am 12.9 11.1 12.0 94 0.5 ESE 13 15 7 8 1007.0 - 0.0
20/05:00am 13.4 12.1 12.5 94 0.5 E 11 13 6 7 1007.2 - 0.0
20/04:30am 13.4 12.2 12.8 96 0.3 E 11 13 6 7 1007.3 - 0.0
20/04:00am 13.3 11.7 12.8 97 0.3 E 13 15 7 8 1007.5 - 0.0
20/03:30am 13.1 11.5 12.9 99 0.1 E 13 17 7 9 1007.8 - 0.0
20/03:00am 13.2 12.1 13.0 99 0.1 E 11 13 6 7 1008.5 1008.5 0.0
20/02:30am 12.7 11.7 12.2 97 0.3 E 9 13 5 7 1008.6 - 0.0
20/02:00am 13.4 11.8 12.8 96 0.3 ENE 13 17 7 9 1008.6 - 0.0
20/01:30am 14.1 11.9 13.3 95 0.4 NE 17 22 9 12 1008.9 - 0.0
20/01:00am 14.2 12.0 13.4 95 0.4 NE 17 24 9 13 1009.2 - 0.0
20/12:30am 14.1 12.4 13.5 96 0.3 NE 15 22 8 12 1009.9 - 0.0
20/12:00am 14.0 12.2 13.2 95 0.4 NE 15 19 8 10 1010.3 1010.3 0.0
 
Date/Time
EDT
Temp
°C
App
Temp
°C
Dew
Point
Rel
Hum
%
Delta-T
°C
Wind Press
QNH
hPa
Press
MSL
hPa
Rain
since 9 am
mm
Dir
 
Spd
km/h
Gust
km/h
Spd
kts
Gust
kts
19/11:30pm 13.9 12.0 13.0 94 0.5 NE 15 20 8 11 1010.6 - 0.0
19/11:00pm 13.9 11.5 12.8 93 0.6 NNE 17 22 9 12 1011.2 - 0.0
19/10:30pm 13.8 11.4 12.7 93 0.6 N 17 22 9 12 1011.6 - 0.0
19/10:00pm 13.9 11.9 12.6 92 0.7 N 15 20 8 11 1011.8 - 0.0
19/09:30pm 13.6 11.5 12.5 93 0.6 N 15 17 8 9 1011.8 - 0.0
19/09:00pm 13.4 12.0 12.1 92 0.7 N 11 15 6 8 1012.2 1012.2 0.0
19/08:30pm 13.7 12.3 12.1 90 0.9 N 11 15 6 8 1012.0 - 0.0
19/08:00pm 13.8 11.6 12.0 89 1.0 N 15 19 8 10 1012.0 - 0.0
19/07:30pm 14.1 11.5 12.0 87 1.1 N 17 20 9 11 1012.5 - 0.0
19/07:00pm 14.9 12.3 12.0 83 1.6 N 17 22 9 12 1012.8 - 0.0
19/06:30pm 15.8 13.2 12.0 78 2.1 N 17 20 9 11 1013.2 - 0.0
19/06:00pm 15.7 12.6 11.7 77 2.2 N 19 22 10 12 1013.4 1013.4 0.0
19/05:30pm 17.1 14.1 12.0 72 2.8 N 19 24 10 13 1012.9 - 0.0
19/05:00pm 17.9 15.0 12.4 70 3.1 N 19 24 10 13 1013.1 - 0.0
19/04:30pm 18.2 15.9 12.9 71 3.0 NNW 17 24 9 13 1013.8 - 0.0
19/04:00pm 17.3 14.4 10.9 66 3.4 NW 17 24 9 13 1014.0 - 0.0
19/03:30pm 18.2 14.6 11.7 66 3.6 NW 22 30 12 16 1014.7 - 0.0
19/03:00pm 18.2 14.2 10.3 60 4.2 WNW 22 30 12 16 1015.4 1015.4 0.0
19/02:30pm 17.7 14.7 10.8 64 3.7 NNW 17 26 9 14 1015.3 - 0.0
19/02:00pm 17.3 14.6 10.2 63 3.8 NNW 15 28 8 15 1015.7 - 0.0

Other Formats:

Comma delimited format used in spreadsheet applications
http://www.bom.gov.au/fwo/IDT60801/IDT60801.94953.axf

JavaScript Object Notation format (JSON) in row-major order
http://www.bom.gov.au/fwo/IDT60801/IDT60801.94953.json